Silva, Missouri
Current Conditions -  °F | °C
As of 7:53 AM on Wednesday 26 Nov 2014 (Local Time) from KPOF Reporting Station
Clear Clear  
Wind Chill: 32°   Ceiling: Unl
Heat Index: 32°   Visibility: 10mi
Dew Point: 27°   Wind: 3mph
Humidity: 82%   Direction: 140°SE
Pressure: 30.08"   Gusts: NA
Location:  37.18°N, 90.46°W
Report Text: KPOF 261353Z AUTO 14003KT 10SM CLR 00/M03 A3008 RMK AO2 SLP191 T00001028
Loading
Personal Weather Stations






























Interactive Weather Map New forecast layout! Learn more

10-Day Weather Forecast

Advertisements
Track Severe Weather on mobile